createdAt,value
2022-08-03T00:01:25.423Z,51.50
2022-08-03T00:03:51.965Z,51.85
2022-08-03T00:06:18.481Z,51.86
2022-08-03T00:08:45.105Z,51.78
2022-08-03T00:11:11.836Z,52.11
2022-08-03T00:13:38.409Z,51.84
2022-08-03T00:16:05.482Z,51.79
2022-08-03T00:18:32.155Z,51.61
2022-08-03T00:20:58.659Z,51.42
2022-08-03T00:23:25.263Z,51.66
2022-08-03T00:25:52.099Z,51.81
2022-08-03T00:28:18.635Z,51.60
2022-08-03T00:30:45.272Z,51.29
2022-08-03T00:33:12.019Z,51.09
2022-08-03T00:35:50.601Z,51.78
2022-08-03T00:38:18.336Z,51.95
2022-08-03T00:40:44.980Z,51.57
2022-08-03T00:43:11.661Z,52.11
2022-08-03T00:45:41.368Z,51.78
2022-08-03T00:48:30.155Z,52.26
2022-08-03T00:50:56.966Z,52.49
2022-08-03T00:53:24.426Z,52.23
2022-08-03T00:55:51.288Z,52.44
2022-08-03T00:58:17.843Z,52.66
2022-08-03T01:00:44.385Z,53.11
2022-08-03T01:03:12.028Z,53.35
2022-08-03T01:05:52.665Z,53.09
2022-08-03T01:08:19.122Z,53.72
2022-08-03T01:10:54.563Z,52.86
2022-08-03T01:14:04.677Z,53.31
2022-08-03T01:16:37.239Z,53.48
2022-08-03T01:19:06.655Z,53.51
2022-08-03T01:21:52.352Z,53.38
2022-08-03T01:24:46.837Z,53.09
2022-08-03T01:27:31.306Z,53.27
2022-08-03T01:30:05.248Z,53.10
2022-08-03T01:33:01.643Z,52.81
2022-08-03T01:36:13.240Z,53.09
2022-08-03T01:38:47.650Z,53.04
2022-08-03T01:41:20.160Z,52.95
2022-08-03T01:44:28.448Z,52.93
2022-08-03T01:46:38.438Z,53.07
2022-08-03T01:49:09.376Z,53.24
2022-08-03T01:52:02.681Z,53.50
2022-08-03T01:54:27.118Z,53.58
2022-08-03T01:56:56.749Z,53.80
2022-08-03T01:59:26.410Z,54.21
2022-08-03T02:02:29.142Z,54.20
2022-08-03T02:04:43.723Z,54.48
2022-08-03T02:07:11.403Z,53.82
2022-08-03T02:09:40.169Z,53.84
2022-08-03T02:12:11.410Z,53.69
2022-08-03T02:14:40.887Z,54.28
2022-08-03T02:17:08.252Z,54.22
2022-08-03T02:19:36.336Z,54.46
2022-08-03T02:22:05.112Z,54.77
2022-08-03T02:24:32.091Z,55.34
2022-08-03T02:27:00.250Z,54.96
2022-08-03T02:29:39.384Z,54.79
2022-08-03T02:32:12.512Z,54.24
2022-08-03T02:34:42.403Z,54.57
2022-08-03T02:37:12.107Z,54.71
2022-08-03T02:39:42.878Z,54.73
2022-08-03T02:42:12.727Z,54.60
2022-08-03T02:44:43.746Z,54.35
2022-08-03T02:47:12.568Z,54.64
2022-08-03T02:49:51.619Z,54.86
2022-08-03T02:52:21.361Z,55.16
2022-08-03T02:54:51.196Z,55.33
2022-08-03T02:57:19.974Z,55.18
2022-08-03T02:59:47.642Z,55.04
2022-08-03T03:02:16.422Z,55.05
2022-08-03T03:04:59.737Z,55.46
2022-08-03T03:07:34.642Z,55.46
2022-08-03T03:10:19.353Z,55.40
2022-08-03T03:12:47.409Z,55.25
2022-08-03T03:15:14.130Z,54.83
2022-08-03T03:17:43.178Z,55.35
2022-08-03T03:20:10.715Z,55.81
2022-08-03T03:22:38.857Z,55.58
2022-08-03T03:25:07.436Z,55.41
2022-08-03T03:27:34.645Z,55.54
2022-08-03T03:30:02.565Z,55.85
2022-08-03T03:32:29.649Z,55.75
2022-08-03T03:34:59.255Z,55.88
2022-08-03T03:37:29.197Z,55.45
2022-08-03T03:39:56.294Z,55.78
2022-08-03T03:42:23.438Z,55.44
2022-08-03T03:44:50.159Z,55.67
2022-08-03T03:47:17.253Z,56.08
2022-08-03T03:49:59.524Z,56.36
2022-08-03T03:52:26.018Z,55.97
2022-08-03T03:54:53.799Z,56.14
2022-08-03T03:57:22.011Z,56.27
2022-08-03T03:59:49.072Z,56.30
2022-08-03T04:02:15.930Z,56.29
2022-08-03T04:05:01.483Z,56.35
2022-08-03T04:07:47.093Z,56.78
2022-08-03T04:10:39.840Z,56.84
2022-08-03T04:13:12.388Z,56.50
2022-08-03T04:15:40.103Z,57.07
2022-08-03T04:18:09.986Z,57.08
2022-08-03T04:20:38.783Z,57.58
2022-08-03T04:23:15.537Z,57.96
2022-08-03T04:25:43.909Z,57.71
2022-08-03T04:28:30.486Z,57.79
2022-08-03T04:30:59.822Z,57.80
2022-08-03T04:33:30.312Z,57.80
2022-08-03T04:36:02.630Z,58.04
2022-08-03T04:38:32.878Z,57.38
2022-08-03T04:41:01.165Z,57.88
2022-08-03T04:43:28.375Z,57.93
2022-08-03T04:45:56.069Z,57.76
2022-08-03T04:48:22.859Z,56.61
2022-08-03T04:50:49.536Z,56.00
2022-08-03T04:53:18.025Z,55.93
2022-08-03T04:55:44.777Z,55.59
2022-08-03T04:58:12.598Z,55.37
2022-08-03T05:00:39.353Z,55.30
2022-08-03T05:03:23.885Z,54.89
2022-08-03T05:06:02.019Z,54.78
2022-08-03T05:08:41.191Z,54.39
2022-08-03T05:11:13.324Z,54.28
2022-08-03T05:13:39.815Z,54.46
2022-08-03T05:16:06.326Z,54.43
2022-08-03T05:18:32.904Z,54.21
2022-08-03T05:20:59.456Z,53.70
2022-08-03T05:23:26.011Z,53.83
2022-08-03T05:25:52.503Z,53.74
2022-08-03T05:28:19.118Z,53.50
2022-08-03T05:30:45.636Z,53.49
2022-08-03T05:36:01.089Z,53.51
2022-08-03T05:38:28.508Z,53.13
2022-08-03T05:41:21.021Z,53.22
2022-08-03T05:43:46.688Z,53.02
2022-08-03T05:46:13.417Z,53.08
2022-08-03T05:48:40.489Z,52.76
2022-08-03T05:51:11.052Z,52.78
2022-08-03T05:53:38.358Z,52.69
2022-08-03T05:56:13.997Z,52.47
2022-08-03T05:58:46.958Z,52.61
2022-08-03T06:01:14.874Z,52.60
2022-08-03T06:03:41.505Z,52.35
2022-08-03T06:06:08.481Z,52.39
2022-08-03T06:08:35.431Z,52.18
2022-08-03T06:11:02.079Z,51.99
2022-08-03T06:13:28.825Z,52.04
2022-08-03T06:15:55.395Z,51.96
2022-08-03T06:18:21.955Z,51.87
2022-08-03T06:20:49.464Z,51.75
2022-08-03T06:23:17.968Z,52.06
2022-08-03T06:25:45.287Z,51.64
2022-08-03T06:28:35.228Z,51.78
2022-08-03T06:31:01.016Z,51.67
2022-08-03T06:34:31.218Z,51.54
2022-08-03T06:36:14.384Z,51.47
2022-08-03T06:38:40.901Z,51.31
2022-08-03T06:41:07.444Z,51.37
2022-08-03T06:43:37.620Z,51.22
2022-08-03T06:46:06.047Z,51.21
2022-08-03T06:48:32.753Z,51.34
2022-08-03T06:50:59.477Z,51.20
2022-08-03T06:53:26.126Z,51.36
2022-08-03T06:55:55.023Z,51.09
2022-08-03T06:58:22.194Z,50.81
2022-08-03T07:00:50.924Z,50.83
2022-08-03T07:03:17.599Z,50.89
2022-08-03T07:05:46.578Z,50.83
2022-08-03T07:08:14.011Z,51.03
2022-08-03T07:10:40.507Z,51.07
2022-08-03T07:13:07.429Z,51.08
2022-08-03T07:15:54.247Z,50.70
2022-08-03T07:18:27.608Z,50.61
2022-08-03T07:20:56.422Z,50.61
2022-08-03T07:23:22.959Z,50.63
2022-08-03T07:25:50.759Z,50.55
2022-08-03T07:30:42.827Z,50.18
2022-08-03T07:33:09.382Z,50.35
2022-08-03T07:35:35.905Z,50.26
2022-08-03T07:40:31.507Z,50.21
2022-08-03T07:42:58.741Z,50.19
2022-08-03T07:45:26.860Z,50.17
2022-08-03T07:47:54.503Z,50.09
2022-08-03T07:50:21.889Z,49.86
2022-08-03T07:52:49.566Z,49.90
2022-08-03T07:55:18.082Z,49.93
2022-08-03T07:57:44.719Z,49.68
2022-08-03T08:00:19.262Z,49.74
2022-08-03T08:02:46.194Z,49.81
2022-08-03T08:05:13.220Z,50.01
2022-08-03T08:07:40.150Z,49.66
2022-08-03T08:10:10.116Z,49.57
2022-08-03T08:12:37.861Z,49.53
2022-08-03T08:15:05.246Z,49.76
2022-08-03T08:17:31.884Z,49.39
2022-08-03T08:19:58.421Z,49.74
2022-08-03T08:22:29.850Z,49.47
2022-08-03T08:24:56.832Z,49.58
2022-08-03T08:27:23.650Z,49.47
2022-08-03T08:29:52.678Z,49.43
2022-08-03T08:32:23.646Z,49.37
2022-08-03T08:34:53.279Z,49.61
2022-08-03T08:37:19.775Z,49.53
2022-08-03T08:39:46.295Z,49.52
2022-08-03T08:42:12.955Z,49.22
2022-08-03T08:44:39.825Z,49.40
2022-08-03T08:47:08.308Z,49.16
2022-08-03T08:49:38.794Z,49.14
2022-08-03T08:52:25.452Z,49.32
2022-08-03T08:55:00.147Z,49.25
2022-08-03T08:57:42.890Z,49.32
2022-08-03T09:00:14.050Z,49.03
2022-08-03T09:02:44.817Z,49.07
2022-08-03T09:05:13.650Z,49.20
2022-08-03T09:07:44.709Z,49.37
2022-08-03T09:10:13.998Z,49.76
2022-08-03T09:12:46.156Z,49.60
2022-08-03T09:15:31.282Z,49.96
2022-08-03T09:18:00.130Z,49.91
2022-08-03T09:20:29.003Z,50.10
2022-08-03T09:22:59.688Z,50.08
2022-08-03T09:25:34.222Z,50.07
2022-08-03T09:28:11.035Z,50.10
2022-08-03T09:30:40.545Z,50.10
2022-08-03T09:33:09.884Z,50.00
2022-08-03T09:35:53.641Z,49.90
2022-08-03T09:38:28.562Z,50.04
2022-08-03T09:41:00.115Z,49.93
2022-08-03T09:43:27.681Z,50.31
2022-08-03T09:46:04.111Z,50.42
2022-08-03T09:48:31.789Z,50.92
2022-08-03T09:51:32.312Z,51.51
2022-08-03T09:53:58.991Z,52.15
2022-08-03T09:56:45.224Z,52.51
2022-08-03T09:59:13.874Z,52.41
2022-08-03T10:01:42.015Z,52.22
2022-08-03T10:04:17.181Z,52.25
2022-08-03T10:09:28.183Z,51.54
2022-08-03T10:11:55.254Z,51.64
2022-08-03T10:14:23.401Z,52.03
2022-08-03T10:16:50.232Z,52.05
2022-08-03T10:19:17.486Z,51.68
2022-08-03T10:21:51.145Z,51.75
2022-08-03T10:24:24.269Z,51.73
2022-08-03T10:29:25.183Z,51.70
2022-08-03T10:31:58.019Z,51.72
2022-08-03T10:34:27.567Z,51.73
2022-08-03T10:39:28.750Z,51.57
2022-08-03T10:41:58.697Z,51.71
2022-08-03T10:44:32.598Z,51.63
2022-08-03T10:46:59.573Z,51.40
2022-08-03T10:49:33.867Z,51.43
2022-08-03T10:52:13.852Z,51.45
2022-08-03T10:55:10.180Z,51.31
2022-08-03T10:57:49.921Z,51.55
2022-08-03T11:00:21.670Z,51.14
2022-08-03T11:03:08.710Z,51.04
2022-08-03T11:05:38.177Z,50.60
2022-08-03T11:08:19.210Z,50.68
2022-08-03T11:10:46.750Z,50.78
2022-08-03T11:13:18.229Z,50.71
2022-08-03T11:15:47.824Z,50.96
2022-08-03T11:18:15.345Z,50.72
2022-08-03T11:20:46.066Z,50.44
2022-08-03T11:23:12.985Z,50.33
2022-08-03T11:26:18.731Z,50.52
2022-08-03T11:28:47.504Z,50.46
2022-08-03T11:31:48.170Z,50.40
2022-08-03T11:34:10.873Z,50.23
2022-08-03T11:37:15.223Z,50.40
2022-08-03T11:39:47.461Z,50.32
2022-08-03T11:42:23.159Z,50.02
2022-08-03T11:45:00.363Z,50.05
2022-08-03T11:47:29.669Z,49.86
2022-08-03T11:50:00.223Z,49.81
2022-08-03T11:52:28.876Z,49.59
2022-08-03T11:54:56.439Z,49.50
2022-08-03T11:59:16.499Z,49.38
2022-08-03T12:00:32.461Z,49.32
2022-08-03T12:03:06.415Z,49.01
2022-08-03T12:05:37.256Z,48.89
2022-08-03T12:10:30.021Z,48.71
2022-08-03T12:12:58.187Z,48.61
2022-08-03T12:15:29.989Z,48.63
2022-08-03T12:17:58.281Z,48.52
2022-08-03T12:23:04.582Z,48.35
2022-08-03T12:25:39.524Z,48.05
2022-08-03T12:28:37.021Z,48.09
2022-08-03T12:31:06.412Z,47.68
2022-08-03T12:34:00.414Z,47.80
2022-08-03T12:36:29.975Z,47.65
2022-08-03T12:38:59.147Z,47.57
2022-08-03T12:41:35.094Z,47.60
2022-08-03T12:44:04.008Z,47.20
2022-08-03T12:46:36.511Z,46.90
2022-08-03T12:49:19.452Z,46.87
2022-08-03T12:51:45.954Z,46.56
2022-08-03T12:54:24.778Z,46.51
2022-08-03T12:57:11.096Z,46.48
2022-08-03T12:59:52.641Z,46.43
2022-08-03T13:02:23.609Z,46.13
2022-08-03T13:04:52.396Z,46.63
2022-08-03T13:07:20.485Z,46.22
2022-08-03T13:09:53.179Z,46.22
2022-08-03T13:12:21.869Z,46.15
2022-08-03T13:14:51.094Z,46.04
2022-08-03T13:17:18.393Z,46.14
2022-08-03T13:19:46.304Z,46.08
2022-08-03T13:22:21.343Z,46.08
2022-08-03T13:24:50.402Z,46.11
2022-08-03T13:27:58.911Z,46.20
2022-08-03T13:30:04.832Z,46.08
2022-08-03T13:32:31.592Z,45.97
2022-08-03T13:34:58.279Z,46.26
2022-08-03T13:37:25.608Z,46.06
2022-08-03T13:39:58.727Z,46.00
2022-08-03T13:42:29.507Z,45.92
2022-08-03T13:44:56.102Z,46.04
2022-08-03T13:47:23.010Z,45.90
2022-08-03T13:49:59.982Z,45.86
2022-08-03T13:52:32.399Z,45.76
2022-08-03T13:54:59.043Z,45.77
2022-08-03T13:58:11.928Z,45.65
2022-08-03T14:00:12.712Z,45.51
2022-08-03T14:02:43.944Z,45.28
2022-08-03T14:05:10.578Z,45.19
2022-08-03T14:07:37.240Z,45.28
2022-08-03T14:12:29.401Z,45.21
2022-08-03T14:17:23.305Z,45.09
2022-08-03T14:19:52.789Z,45.27
2022-08-03T14:22:20.691Z,45.19
2022-08-03T14:24:47.216Z,45.34
2022-08-03T14:27:13.710Z,45.08
2022-08-03T14:29:40.223Z,45.25
2022-08-03T14:32:09.428Z,45.02
2022-08-03T14:34:38.854Z,45.36
2022-08-03T14:37:05.413Z,45.21
2022-08-03T14:39:58.301Z,45.23
2022-08-03T14:42:20.255Z,45.06
2022-08-03T14:44:47.215Z,44.93
2022-08-03T14:47:14.316Z,45.01
2022-08-03T14:50:33.510Z,45.06
2022-08-03T14:52:27.577Z,44.98
2022-08-03T14:54:54.141Z,45.03
2022-08-03T14:57:20.901Z,45.04
2022-08-03T14:59:59.762Z,45.09
2022-08-03T15:02:26.717Z,44.94
2022-08-03T15:04:53.257Z,44.85
2022-08-03T15:07:20.866Z,45.04
2022-08-03T15:09:47.764Z,44.86
2022-08-03T15:12:14.453Z,44.80
2022-08-03T15:14:41.008Z,44.87
2022-08-03T15:17:07.895Z,44.86
2022-08-03T15:20:00.383Z,44.84
2022-08-03T15:22:25.422Z,44.67
2022-08-03T15:26:31.914Z,44.37
2022-08-03T15:28:03.718Z,44.74
2022-08-03T15:30:31.449Z,44.52
2022-08-03T15:32:57.971Z,44.42
2022-08-03T15:37:50.159Z,44.22
2022-08-03T15:40:16.674Z,44.14
2022-08-03T15:42:43.164Z,44.22
2022-08-03T15:45:10.061Z,44.00
2022-08-03T15:47:36.655Z,44.39
2022-08-03T15:50:07.805Z,44.10
2022-08-03T15:52:36.089Z,43.92
2022-08-03T15:55:02.643Z,44.31
2022-08-03T15:57:29.190Z,44.14
2022-08-03T16:02:21.327Z,44.05
2022-08-03T16:04:47.864Z,43.98
2022-08-03T16:07:15.909Z,44.10
2022-08-03T16:12:14.548Z,44.09
2022-08-03T16:14:51.869Z,44.01
2022-08-03T16:17:20.640Z,43.99
2022-08-03T16:19:47.421Z,43.56
2022-08-03T16:22:14.558Z,43.66
2022-08-03T16:24:41.467Z,44.00
2022-08-03T16:27:36.787Z,43.81
2022-08-03T16:32:20.945Z,43.73
2022-08-03T16:34:48.253Z,43.93
2022-08-03T16:37:37.761Z,43.49
2022-08-03T16:40:02.599Z,43.62
2022-08-03T16:42:29.233Z,43.71
2022-08-03T16:44:55.763Z,43.48
2022-08-03T16:47:23.009Z,43.48
2022-08-03T16:49:53.743Z,43.64
2022-08-03T16:52:23.776Z,43.45
2022-08-03T16:54:53.544Z,43.30
2022-08-03T16:57:29.956Z,43.41
2022-08-03T17:00:33.720Z,43.28
2022-08-03T17:03:04.184Z,43.30
2022-08-03T17:05:43.828Z,43.52
2022-08-03T17:10:44.626Z,43.14
2022-08-03T17:13:21.453Z,43.38
2022-08-03T17:16:01.087Z,43.35
2022-08-03T17:18:35.024Z,43.48
2022-08-03T17:21:06.416Z,43.26
2022-08-03T17:23:50.363Z,43.41
2022-08-03T17:26:22.063Z,43.35
2022-08-03T17:28:57.418Z,43.42
2022-08-03T17:31:32.145Z,43.33
2022-08-03T17:34:01.613Z,43.05
2022-08-03T17:37:01.729Z,43.06
2022-08-03T17:39:19.333Z,43.10
2022-08-03T17:41:55.355Z,43.57
2022-08-03T17:44:31.065Z,43.43
2022-08-03T17:47:06.624Z,43.51
2022-08-03T17:49:40.032Z,43.18
2022-08-03T17:52:35.641Z,43.45
2022-08-03T17:55:50.637Z,43.29
2022-08-03T17:58:06.958Z,43.13
2022-08-03T18:00:56.269Z,43.09
2022-08-03T18:06:55.541Z,43.11
2022-08-03T18:10:04.424Z,43.05
2022-08-03T18:12:15.458Z,43.45
2022-08-03T18:14:57.587Z,43.13
2022-08-03T18:17:54.646Z,43.40
2022-08-03T18:20:34.438Z,43.53
2022-08-03T18:23:07.013Z,43.23
2022-08-03T18:25:45.263Z,43.23
2022-08-03T18:28:16.212Z,43.06
2022-08-03T18:34:16.630Z,43.16
2022-08-03T18:36:00.222Z,43.36
2022-08-03T18:38:27.809Z,42.94
2022-08-03T18:40:54.369Z,43.43
2022-08-03T18:43:22.538Z,43.36
2022-08-03T18:46:28.809Z,42.93
2022-08-03T18:49:16.611Z,43.21
2022-08-03T18:51:46.578Z,42.92
2022-08-03T18:54:51.032Z,43.10
2022-08-03T18:57:18.390Z,43.31
2022-08-03T19:02:34.237Z,42.91
2022-08-03T19:05:10.754Z,42.97
2022-08-03T19:07:41.703Z,43.25
2022-08-03T19:10:10.445Z,43.02
2022-08-03T19:12:52.104Z,43.29
2022-08-03T19:15:36.147Z,43.20
2022-08-03T19:18:08.821Z,43.09
2022-08-03T19:23:03.658Z,43.03
2022-08-03T19:25:35.342Z,43.11
2022-08-03T19:28:06.065Z,42.97
2022-08-03T19:33:13.741Z,43.34
2022-08-03T19:35:57.140Z,43.07
2022-08-03T19:40:52.946Z,43.32
2022-08-03T19:43:53.765Z,43.00
2022-08-03T19:46:31.074Z,43.29
2022-08-03T19:49:03.250Z,42.97
2022-08-03T19:51:58.371Z,43.36
2022-08-03T19:54:29.812Z,43.28
2022-08-03T19:59:49.974Z,42.93
2022-08-03T20:02:26.872Z,43.25
2022-08-03T20:04:59.829Z,42.81
2022-08-03T20:07:28.784Z,43.22
2022-08-03T20:09:57.106Z,42.93
2022-08-03T20:12:28.290Z,42.95
2022-08-03T20:14:58.600Z,43.45
2022-08-03T20:17:54.970Z,43.16
2022-08-03T20:20:13.606Z,43.56
2022-08-03T20:22:46.227Z,43.49
2022-08-03T20:25:16.295Z,43.27
2022-08-03T20:28:08.067Z,43.54
2022-08-03T20:30:39.590Z,43.57
2022-08-03T20:33:09.919Z,43.28
2022-08-03T20:35:36.460Z,43.38
2022-08-03T20:38:03.266Z,43.64
2022-08-03T20:40:29.833Z,43.58
2022-08-03T20:42:57.255Z,43.52
2022-08-03T20:46:01.009Z,43.45
2022-08-03T20:48:10.753Z,43.39
2022-08-03T20:50:40.723Z,43.05
2022-08-03T20:53:12.002Z,43.33
2022-08-03T20:55:47.141Z,43.10
2022-08-03T20:58:17.841Z,42.99
2022-08-03T21:00:46.781Z,43.21
2022-08-03T21:03:18.737Z,43.16
2022-08-03T21:05:51.679Z,42.98
2022-08-03T21:08:22.562Z,42.87
2022-08-03T21:10:52.596Z,43.05
2022-08-03T21:13:57.386Z,42.90
2022-08-03T21:16:28.998Z,42.65
2022-08-03T21:21:30.654Z,42.60
2022-08-03T21:23:59.280Z,42.86
2022-08-03T21:26:26.900Z,42.56
2022-08-03T21:28:56.210Z,42.39
2022-08-03T21:31:25.617Z,42.72
2022-08-03T21:34:04.244Z,42.41
2022-08-03T21:36:36.030Z,42.74
2022-08-03T21:39:06.039Z,42.58
2022-08-03T21:41:32.749Z,42.45
2022-08-03T21:44:00.713Z,42.49
2022-08-03T21:46:33.985Z,42.48
2022-08-03T21:50:06.038Z,42.47
2022-08-03T21:51:59.834Z,42.17
2022-08-03T21:54:35.539Z,42.17
2022-08-03T21:57:19.206Z,42.04
2022-08-03T21:59:54.122Z,42.00
2022-08-03T22:02:34.464Z,42.44
2022-08-03T22:05:05.097Z,42.35
2022-08-03T22:07:33.822Z,42.17
2022-08-03T22:12:42.985Z,42.07
2022-08-03T22:15:12.376Z,42.40
2022-08-03T22:17:55.709Z,42.10
2022-08-03T22:20:23.258Z,42.20
2022-08-03T22:22:55.744Z,42.13
2022-08-03T22:25:28.709Z,42.41
2022-08-03T22:27:56.666Z,42.04
2022-08-03T22:30:23.442Z,42.27
2022-08-03T22:32:53.169Z,42.06
2022-08-03T22:35:21.327Z,42.24
2022-08-03T22:37:53.847Z,42.18
2022-08-03T22:40:20.567Z,42.38
2022-08-03T22:42:50.530Z,42.14
2022-08-03T22:46:06.169Z,42.43
2022-08-03T22:48:07.969Z,42.07
2022-08-03T22:50:34.845Z,42.41
2022-08-03T22:53:01.524Z,42.07
2022-08-03T22:55:28.292Z,42.40
2022-08-03T22:57:55.995Z,42.13
2022-08-03T23:00:23.904Z,42.03
2022-08-03T23:02:51.602Z,42.42
2022-08-03T23:06:02.460Z,42.20
2022-08-03T23:08:14.696Z,42.37
2022-08-03T23:10:46.851Z,42.13
2022-08-03T23:13:17.498Z,42.19
2022-08-03T23:15:51.160Z,42.18
2022-08-03T23:18:20.205Z,42.51
2022-08-03T23:20:52.754Z,42.17
2022-08-03T23:23:20.735Z,42.19
2022-08-03T23:25:50.442Z,42.26
2022-08-03T23:28:17.727Z,42.25
2022-08-03T23:30:45.543Z,42.17
2022-08-03T23:33:14.909Z,42.08
2022-08-03T23:36:28.210Z,42.20
2022-08-03T23:38:44.974Z,42.60
2022-08-03T23:41:13.391Z,42.53
2022-08-03T23:43:51.167Z,42.76
2022-08-03T23:46:19.784Z,42.44
2022-08-03T23:48:46.430Z,42.34
2022-08-03T23:51:49.666Z,42.34
2022-08-03T23:54:26.642Z,42.61
2022-08-03T23:57:22.172Z,42.33
2022-08-03T23:59:58.088Z,42.64
